MSC Vanessa — HOWD — position and weather

sailwx.info

Track history (hours):
 
Tides and Currents Weather Stations Pressure Air Temp Water Temp Dewpoint Dewpoint Depression Visibility Wind Speed Wind Dir Waves Ship Positions

MSC Vanessa

Last reported at 2017-Jun-13 13:01 UTC. Time now 2017-Jun-23 08:40 UTC.
Position S 24°25' W 045°50'.
Warning: this ship's position is 9 days out of date.

Length 300 m; draft 12.3 m.

Type: Cargo ship. MMSI: 356946000.

Date/timePositionNaut miles runAvg speedWind from/ knotsBaromVisibWave heightAir tempDewpointWater temp
2017-Jun-13 13:01S 24°25' W 045°50'015.0
2017-Jun-13 13:00S 24°25' W 045°51'715.1
2017-Jun-13 12:31S 24°25' W 045°59'815.0
2017-Jun-13 12:01S 24°25' W 046°07'713.7
2017-Jun-13 11:31S 24°22' W 046°14'714.6
2017-Jun-13 11:01S 24°17' W 046°19'714.2
2017-Jun-13 10:30S 24°11' W 046°24'713.5
2017-Jun-13 10:01S 24°05' W 046°22'5 9.7
2017-Jun-13 09:31S 24°00' W 046°20'3 5.8
2017-Jun-13 08:59S 23°58' W 046°18'4 0.1
2017-Jun-11 13:59S 23°55' W 046°21'2 4.3
2017-Jun-11 13:26S 23°56' W 046°19'3 7.9
2017-Jun-11 13:00S 23°59' W 046°18'4 7.4
2017-Jun-11 12:30S 24°02' W 046°21'3 6.5
2017-Jun-11 12:00S 24°05' W 046°22'510.2
2017-Jun-11 11:30S 24°10' W 046°21'3 4.6
2017-Jun-11 10:55S 24°12' W 046°19'0 0.1
2017-Jun-11 10:28S 24°12' W 046°19'0 0.0
2017-Jun-11 09:55S 24°12' W 046°19'0 0.0
2017-Jun-11 09:28S 24°12' W 046°19'0 0.0
2017-Jun-11 08:55S 24°12' W 046°19'0 0.0
2017-Jun-11 08:28S 24°12' W 046°19'0 0.0
2017-Jun-11 07:55S 24°12' W 046°19'0 0.0
2017-Jun-11 07:25S 24°12' W 046°19'0 0.0
2017-Jun-11 06:52S 24°12' W 046°19'0 0.0
2017-Jun-11 06:25S 24°12' W 046°19'0 0.2
2017-Jun-11 05:58S 24°12' W 046°19'0 0.0
2017-Jun-11 05:25S 24°12' W 046°19'0 0.0
2017-Jun-11 04:58S 24°12' W 046°19'0 0.1
2017-Jun-11 04:25S 24°12' W 046°19'0 0.0
2017-Jun-11 03:55S 24°12' W 046°19'0 0.0
2017-Jun-11 03:25S 24°12' W 046°19'0 0.0
2017-Jun-11 02:55S 24°12' W 046°19'0 0.0
2017-Jun-11 02:25S 24°12' W 046°19'0 0.0
2017-Jun-11 01:58S 24°12' W 046°19'0 0.0
2017-Jun-11 01:22S 24°12' W 046°19'0 0.0
2017-Jun-11 00:55S 24°12' W 046°19'0 0.0
2017-Jun-11 00:07S 24°12' W 046°19'0 0.1
2017-Jun-10 23:55S 24°12' W 046°19'0 0.1
2017-Jun-10 23:22S 24°12' W 046°19'0 0.0
2017-Jun-10 22:55S 24°12' W 046°19'0 0.0
2017-Jun-10 22:28S 24°12' W 046°19'0 0.0
2017-Jun-10 21:58S 24°12' W 046°19'0 0.0
2017-Jun-10 21:25S 24°12' W 046°19'0 0.0
2017-Jun-10 20:58S 24°12' W 046°19'0 0.0
2017-Jun-10 20:28S 24°12' W 046°19'0 0.0
2017-Jun-10 19:55S 24°12' W 046°19'0 0.0
2017-Jun-10 19:28S 24°12' W 046°19'0 0.0
2017-Jun-10 18:55S 24°12' W 046°19'0 0.0
2017-Jun-10 18:25S 24°12' W 046°19'0 0.0
2017-Jun-10 17:55S 24°12' W 046°19'0 0.0
2017-Jun-10 17:28S 24°12' W 046°19'0 0.0
2017-Jun-10 16:55S 24°12' W 046°19'0 0.0
2017-Jun-10 16:22S 24°12' W 046°19'0 0.0
2017-Jun-10 15:55S 24°12' W 046°19'0 0.0
2017-Jun-10 15:25S 24°12' W 046°19'0 0.0
2017-Jun-10 14:58S 24°12' W 046°19'0 0.0
2017-Jun-10 13:55S 24°12' W 046°19'0 0.0
2017-Jun-10 13:25S 24°12' W 046°19'0 0.0
2017-Jun-10 12:58S 24°12' W 046°19'0 0.0
2017-Jun-10 12:28S 24°12' W 046°19'0 0.0
2017-Jun-10 11:58S 24°12' W 046°19'0 0.0
2017-Jun-10 11:28S 24°12' W 046°19'0 0.0
2017-Jun-10 10:58S 24°12' W 046°19'0 0.0
2017-Jun-10 10:25S 24°12' W 046°19'0 0.0
2017-Jun-10 09:58S 24°12' W 046°19'0 0.0
2017-Jun-10 09:28S 24°12' W 046°19'0 0.0
2017-Jun-10 08:55S 24°12' W 046°19'0 0.0
2017-Jun-10 08:28S 24°12' W 046°19'0 0.0
2017-Jun-10 07:49S 24°12' W 046°19'0 0.0
2017-Jun-10 07:25S 24°12' W 046°19'0 0.0
2017-Jun-10 06:58S 24°12' W 046°19'0 0.0
2017-Jun-10 06:25S 24°12' W 046°19'0 0.0
2017-Jun-10 05:58S 24°12' W 046°19'0 0.1
2017-Jun-10 05:25S 24°12' W 046°19'0 0.3
2017-Jun-10 05:00S 24°12' W 046°19'2 4.4
2017-Jun-10 04:30S 24°13' W 046°21'918.2
2017-Jun-10 04:00S 24°21' W 046°25'918.6
2017-Jun-10 03:30S 24°29' W 046°31'918.6
2017-Jun-10 03:00S 24°36' W 046°38'918.6
2017-Jun-10 02:30S 24°42' W 046°45'  
2017-Jun-07 20:06S 27°07' W 048°13'616.7
2017-Jun-07 19:43S 27°14' W 048°12'316.6
2017-Jun-07 19:30S 27°17' W 048°12'817.0
2017-Jun-07 19:00S 27°25' W 048°14'817.0
2017-Jun-07 18:31S 27°33' W 048°16'917.3
2017-Jun-07 18:00S 27°42' W 048°18'917.1
2017-Jun-07 17:30S 27°50' W 048°21'917.1
2017-Jun-07 16:59S 27°59' W 048°23'817.0
2017-Jun-07 16:30S 28°07' W 048°25'  
Track history (hours):
 
Tides and Currents Weather Stations Pressure Air Temp Water Temp Dewpoint Dewpoint Depression Visibility Wind Speed Wind Dir Waves Ship Positions

MSC Vanessa

Last reported at 2017-Jun-13 13:01 UTC. Time now 2017-Jun-23 08:40 UTC.
Position S 24°25' W 045°50'.
Warning: this ship's position is 9 days out of date.

Length 300 m; draft 12.3 m.

Type: Cargo ship. MMSI: 356946000.

Date/timePositionNaut miles runAvg speedWind from/ knotsBaromVisibWave heightAir tempDewpointWater temp
2017-Jun-13 13:01S 24°25' W 045°50'015.0
2017-Jun-13 13:00S 24°25' W 045°51'715.1
2017-Jun-13 12:31S 24°25' W 045°59'815.0
2017-Jun-13 12:01S 24°25' W 046°07'713.7
2017-Jun-13 11:31S 24°22' W 046°14'714.6
2017-Jun-13 11:01S 24°17' W 046°19'714.2
2017-Jun-13 10:30S 24°11' W 046°24'713.5
2017-Jun-13 10:01S 24°05' W 046°22'5 9.7
2017-Jun-13 09:31S 24°00' W 046°20'3 5.8
2017-Jun-13 08:59S 23°58' W 046°18'4 0.1
2017-Jun-11 13:59S 23°55' W 046°21'2 4.3
2017-Jun-11 13:26S 23°56' W 046°19'3 7.9
2017-Jun-11 13:00S 23°59' W 046°18'4 7.4
2017-Jun-11 12:30S 24°02' W 046°21'3 6.5
2017-Jun-11 12:00S 24°05' W 046°22'510.2
2017-Jun-11 11:30S 24°10' W 046°21'3 4.6
2017-Jun-11 10:55S 24°12' W 046°19'0 0.1
2017-Jun-11 10:28S 24°12' W 046°19'0 0.0
2017-Jun-11 09:55S 24°12' W 046°19'0 0.0
2017-Jun-11 09:28S 24°12' W 046°19'0 0.0
2017-Jun-11 08:55S 24°12' W 046°19'0 0.0
2017-Jun-11 08:28S 24°12' W 046°19'0 0.0
2017-Jun-11 07:55S 24°12' W 046°19'0 0.0
2017-Jun-11 07:25S 24°12' W 046°19'0 0.0
2017-Jun-11 06:52S 24°12' W 046°19'0 0.0
2017-Jun-11 06:25S 24°12' W 046°19'0 0.2
2017-Jun-11 05:58S 24°12' W 046°19'0 0.0
2017-Jun-11 05:25S 24°12' W 046°19'0 0.0
2017-Jun-11 04:58S 24°12' W 046°19'0 0.1
2017-Jun-11 04:25S 24°12' W 046°19'0 0.0
2017-Jun-11 03:55S 24°12' W 046°19'0 0.0
2017-Jun-11 03:25S 24°12' W 046°19'0 0.0
2017-Jun-11 02:55S 24°12' W 046°19'0 0.0
2017-Jun-11 02:25S 24°12' W 046°19'0 0.0
2017-Jun-11 01:58S 24°12' W 046°19'0 0.0
2017-Jun-11 01:22S 24°12' W 046°19'0 0.0
2017-Jun-11 00:55S 24°12' W 046°19'0 0.0
2017-Jun-11 00:07S 24°12' W 046°19'0 0.1
2017-Jun-10 23:55S 24°12' W 046°19'0 0.1
2017-Jun-10 23:22S 24°12' W 046°19'0 0.0
2017-Jun-10 22:55S 24°12' W 046°19'0 0.0
2017-Jun-10 22:28S 24°12' W 046°19'0 0.0
2017-Jun-10 21:58S 24°12' W 046°19'0 0.0
2017-Jun-10 21:25S 24°12' W 046°19'0 0.0
2017-Jun-10 20:58S 24°12' W 046°19'0 0.0
2017-Jun-10 20:28S 24°12' W 046°19'0 0.0
2017-Jun-10 19:55S 24°12' W 046°19'0 0.0
2017-Jun-10 19:28S 24°12' W 046°19'0 0.0
2017-Jun-10 18:55S 24°12' W 046°19'0 0.0
2017-Jun-10 18:25S 24°12' W 046°19'0 0.0
2017-Jun-10 17:55S 24°12' W 046°19'0 0.0
2017-Jun-10 17:28S 24°12' W 046°19'0 0.0
2017-Jun-10 16:55S 24°12' W 046°19'0 0.0
2017-Jun-10 16:22S 24°12' W 046°19'0 0.0
2017-Jun-10 15:55S 24°12' W 046°19'0 0.0
2017-Jun-10 15:25S 24°12' W 046°19'0 0.0
2017-Jun-10 14:58S 24°12' W 046°19'0 0.0
2017-Jun-10 13:55S 24°12' W 046°19'0 0.0
2017-Jun-10 13:25S 24°12' W 046°19'0 0.0
2017-Jun-10 12:58S 24°12' W 046°19'0 0.0
2017-Jun-10 12:28S 24°12' W 046°19'0 0.0
2017-Jun-10 11:58S 24°12' W 046°19'0 0.0
2017-Jun-10 11:28S 24°12' W 046°19'0 0.0
2017-Jun-10 10:58S 24°12' W 046°19'0 0.0
2017-Jun-10 10:25S 24°12' W 046°19'0 0.0
2017-Jun-10 09:58S 24°12' W 046°19'0 0.0
2017-Jun-10 09:28S 24°12' W 046°19'0 0.0
2017-Jun-10 08:55S 24°12' W 046°19'0 0.0
2017-Jun-10 08:28S 24°12' W 046°19'0 0.0
2017-Jun-10 07:49S 24°12' W 046°19'0 0.0
2017-Jun-10 07:25S 24°12' W 046°19'0 0.0
2017-Jun-10 06:58S 24°12' W 046°19'0 0.0
2017-Jun-10 06:25S 24°12' W 046°19'0 0.0
2017-Jun-10 05:58S 24°12' W 046°19'0 0.1
2017-Jun-10 05:25S 24°12' W 046°19'0 0.3
2017-Jun-10 05:00S 24°12' W 046°19'2 4.4
2017-Jun-10 04:30S 24°13' W 046°21'918.2
2017-Jun-10 04:00S 24°21' W 046°25'918.6
2017-Jun-10 03:30S 24°29' W 046°31'918.6
2017-Jun-10 03:00S 24°36' W 046°38'918.6
2017-Jun-10 02:30S 24°42' W 046°45'  
2017-Jun-07 20:06S 27°07' W 048°13'616.7
2017-Jun-07 19:43S 27°14' W 048°12'316.6
2017-Jun-07 19:30S 27°17' W 048°12'817.0
2017-Jun-07 19:00S 27°25' W 048°14'817.0
2017-Jun-07 18:31S 27°33' W 048°16'917.3
2017-Jun-07 18:00S 27°42' W 048°18'917.1
2017-Jun-07 17:30S 27°50' W 048°21'917.1
2017-Jun-07 16:59S 27°59' W 048°23'817.0
2017-Jun-07 16:30S 28°07' W 048°25'  

Dump ship's entire track history